createdAt,value
2018-10-06T00:00:52.855Z,4.42
2018-10-06T00:03:21.728Z,3.60
2018-10-06T00:05:50.666Z,5.33
2018-10-06T00:08:19.618Z,3.40
2018-10-06T00:10:48.628Z,5.67
2018-10-06T00:13:17.595Z,3.65
2018-10-06T00:15:46.474Z,3.50
2018-10-06T00:18:15.466Z,6.35
2018-10-06T00:20:44.343Z,3.12
2018-10-06T00:23:13.243Z,3.85
2018-10-06T00:25:42.116Z,4.65
2018-10-06T00:28:11.151Z,4.00
2018-10-06T00:30:40.023Z,4.60
2018-10-06T00:33:08.906Z,3.87
2018-10-06T00:35:37.911Z,4.47
2018-10-06T00:38:07.031Z,6.62
2018-10-06T00:40:35.906Z,3.70
2018-10-06T00:43:04.781Z,5.25
2018-10-06T00:45:33.703Z,4.50
2018-10-06T00:48:02.720Z,4.67
2018-10-06T00:50:31.625Z,3.55
2018-10-06T00:53:00.510Z,4.17
2018-10-06T00:55:29.861Z,6.12
2018-10-06T00:57:58.754Z,3.30
2018-10-06T01:00:27.750Z,4.20
2018-10-06T01:02:56.735Z,6.78
2018-10-06T01:05:25.747Z,4.30
2018-10-06T01:07:54.659Z,5.00
2018-10-06T01:10:23.544Z,5.50
2018-10-06T01:12:52.414Z,2.95
2018-10-06T01:15:21.278Z,5.03
2018-10-06T01:17:50.249Z,4.90
2018-10-06T01:20:19.172Z,4.60
2018-10-06T01:22:48.047Z,7.17
2018-10-06T01:25:17.075Z,4.28
2018-10-06T01:27:45.955Z,3.22
2018-10-06T01:30:15.071Z,3.95
2018-10-06T01:32:43.922Z,5.33
2018-10-06T01:35:12.795Z,4.42
2018-10-06T01:37:41.684Z,4.53
2018-10-06T01:40:10.631Z,3.98
2018-10-06T01:42:39.599Z,6.72
2018-10-06T01:45:08.557Z,4.60
2018-10-06T01:47:37.502Z,3.62
2018-10-06T01:50:06.929Z,4.00
2018-10-06T01:52:35.830Z,3.22
2018-10-06T01:55:04.812Z,3.58
2018-10-06T01:57:33.687Z,4.87
2018-10-06T02:00:02.574Z,7.90
2018-10-06T02:02:31.539Z,3.80
2018-10-06T02:05:00.434Z,4.92
2018-10-06T02:07:29.383Z,4.55
2018-10-06T02:09:58.321Z,3.98
2018-10-06T02:12:27.308Z,4.55
2018-10-06T02:14:56.331Z,4.12
2018-10-06T02:17:25.374Z,6.03
2018-10-06T02:19:54.347Z,8.45
2018-10-06T02:22:23.227Z,5.17
2018-10-06T02:24:52.122Z,4.67
2018-10-06T02:27:21.118Z,3.77
2018-10-06T02:29:50.019Z,5.05
2018-10-06T02:32:18.871Z,4.70
2018-10-06T02:34:47.766Z,5.40
2018-10-06T02:37:16.648Z,5.70
2018-10-06T02:39:45.566Z,5.83
2018-10-06T02:42:14.422Z,4.20
2018-10-06T02:44:43.334Z,8.18
2018-10-06T02:47:12.210Z,9.35
2018-10-06T02:49:41.151Z,4.55
2018-10-06T02:52:10.066Z,5.20
2018-10-06T02:54:38.971Z,5.58
2018-10-06T02:57:08.076Z,3.85
2018-10-06T02:59:37.071Z,4.47
2018-10-06T03:02:05.947Z,6.87
2018-10-06T03:04:34.843Z,4.35
2018-10-06T03:07:03.733Z,3.95
2018-10-06T03:09:32.636Z,4.30
2018-10-06T03:12:01.699Z,3.17
2018-10-06T03:14:30.891Z,8.48
2018-10-06T03:16:59.771Z,8.28
2018-10-06T03:19:28.651Z,5.45
2018-10-06T03:21:57.514Z,6.12
2018-10-06T03:24:26.414Z,4.80
2018-10-06T03:26:55.327Z,7.37
2018-10-06T03:29:24.204Z,5.05
2018-10-06T03:31:53.139Z,5.42
2018-10-06T03:34:22.023Z,4.33
2018-10-06T03:36:50.965Z,4.72
2018-10-06T03:39:19.853Z,5.42
2018-10-06T03:41:48.716Z,5.65
2018-10-06T03:44:17.615Z,4.62
2018-10-06T03:46:46.625Z,5.33
2018-10-06T03:49:15.587Z,4.47
2018-10-06T03:51:44.923Z,4.75
2018-10-06T03:54:13.907Z,5.75
2018-10-06T03:56:43.814Z,5.15
2018-10-06T03:59:13.590Z,5.47
2018-10-06T04:01:42.591Z,5.20
2018-10-06T04:04:11.525Z,4.92
2018-10-06T04:06:40.415Z,4.87
2018-10-06T04:09:10.178Z,4.62
2018-10-06T04:11:39.050Z,5.28
2018-10-06T04:14:08.059Z,8.58
2018-10-06T04:16:36.950Z,4.85
2018-10-06T04:19:06.127Z,4.58
2018-10-06T04:21:40.281Z,4.95
2018-10-06T04:24:09.142Z,5.00
2018-10-06T04:26:38.147Z,3.80
2018-10-06T04:29:07.087Z,5.40
2018-10-06T04:31:36.031Z,7.90
2018-10-06T04:34:04.998Z,4.03
2018-10-06T04:36:34.188Z,7.78
2018-10-06T04:39:04.267Z,5.30
2018-10-06T04:41:33.194Z,5.78
2018-10-06T04:44:02.191Z,4.95
2018-10-06T04:46:31.138Z,4.92
2018-10-06T04:49:00.093Z,5.22
2018-10-06T04:51:29.019Z,7.65
2018-10-06T04:53:57.883Z,4.60
2018-10-06T04:56:26.863Z,5.78
2018-10-06T04:58:55.939Z,4.10
2018-10-06T05:01:25.068Z,6.20
2018-10-06T05:03:54.055Z,5.12
2018-10-06T05:06:23.065Z,6.25
2018-10-06T05:08:51.962Z,6.30
2018-10-06T05:11:20.954Z,4.70
2018-10-06T05:13:50.330Z,5.92
2018-10-06T05:16:19.306Z,5.75
2018-10-06T05:18:48.178Z,4.65
2018-10-06T05:21:17.062Z,8.63
2018-10-06T05:23:45.977Z,6.55
2018-10-06T05:26:14.900Z,4.72
2018-10-06T05:28:43.761Z,4.80
2018-10-06T05:31:12.694Z,6.83
2018-10-06T05:33:41.696Z,5.83
2018-10-06T05:36:10.635Z,5.08
2018-10-06T05:38:39.499Z,5.60
2018-10-06T05:41:08.463Z,5.87
2018-10-06T05:43:37.443Z,5.50
2018-10-06T05:46:06.539Z,7.80
2018-10-06T05:48:35.423Z,6.80
2018-10-06T05:51:04.595Z,6.17
2018-10-06T05:53:33.478Z,6.03
2018-10-06T05:56:02.519Z,8.85
2018-10-06T05:58:31.571Z,7.40
2018-10-06T06:01:00.619Z,7.20
2018-10-06T06:03:29.498Z,6.40
2018-10-06T06:05:58.426Z,7.15
2018-10-06T06:08:27.483Z,8.70
2018-10-06T06:11:02.674Z,8.03
2018-10-06T06:13:37.719Z,8.53
2018-10-06T06:16:12.920Z,7.55
2018-10-06T06:18:48.123Z,8.98
2018-10-06T06:21:23.438Z,6.97
2018-10-06T06:23:58.956Z,6.95
2018-10-06T06:26:34.205Z,7.83
2018-10-06T06:29:09.514Z,8.60
2018-10-06T06:31:44.621Z,6.25
2018-10-06T06:34:13.523Z,6.15
2018-10-06T06:36:42.411Z,7.17
2018-10-06T06:39:11.267Z,6.55
2018-10-06T06:41:40.206Z,6.78
2018-10-06T06:44:09.141Z,6.60
2018-10-06T06:46:38.091Z,6.85
2018-10-06T06:49:07.084Z,9.88
2018-10-06T06:51:36.225Z,7.37
2018-10-06T06:54:05.140Z,10.10
2018-10-06T06:56:34.074Z,8.33
2018-10-06T06:59:03.031Z,7.17
2018-10-06T07:01:32.046Z,6.33
2018-10-06T07:04:00.990Z,8.05
2018-10-06T07:06:29.912Z,8.75
2018-10-06T07:08:59.358Z,11.75
2018-10-06T07:11:28.248Z,8.95
2018-10-06T07:13:57.132Z,17.50
2018-10-06T07:16:26.163Z,10.82
2018-10-06T07:18:55.098Z,9.80
2018-10-06T07:21:24.012Z,8.43
2018-10-06T07:23:52.919Z,6.75
2018-10-06T07:26:21.808Z,9.80
2018-10-06T07:28:50.774Z,8.23
2018-10-06T07:31:19.830Z,6.83
2018-10-06T07:33:48.706Z,7.95
2018-10-06T07:36:17.707Z,7.58
2018-10-06T07:38:46.614Z,7.85
2018-10-06T07:41:15.719Z,10.70
2018-10-06T07:43:44.570Z,10.43
2018-10-06T07:46:13.531Z,7.97
2018-10-06T07:48:42.407Z,8.35
2018-10-06T07:51:11.302Z,9.30
2018-10-06T07:53:40.195Z,9.88
2018-10-06T07:56:09.075Z,12.73
2018-10-06T07:58:37.939Z,8.98
2018-10-06T08:01:07.095Z,11.28
2018-10-06T08:03:36.103Z,9.13
2018-10-06T08:06:05.019Z,10.65
2018-10-06T08:08:34.006Z,10.53
2018-10-06T08:11:03.034Z,13.00
2018-10-06T08:16:06.176Z,11.85
2018-10-06T08:18:35.058Z,10.72
2018-10-06T08:21:04.070Z,10.75
2018-10-06T08:23:33.106Z,10.78
2018-10-06T08:26:02.151Z,12.07
2018-10-06T08:28:31.133Z,15.95
2018-10-06T08:31:00.787Z,8.88
2018-10-06T08:33:29.746Z,8.50
2018-10-06T08:35:58.682Z,10.90
2018-10-06T08:38:27.678Z,12.85
2018-10-06T08:40:56.584Z,9.85
2018-10-06T08:43:25.586Z,13.48
2018-10-06T08:45:54.494Z,10.58
2018-10-06T08:48:23.480Z,8.55
2018-10-06T08:50:52.383Z,11.95
2018-10-06T08:53:21.262Z,9.75
2018-10-06T08:55:50.242Z,11.35
2018-10-06T08:58:19.038Z,9.18
2018-10-06T09:00:47.983Z,9.20
2018-10-06T09:03:16.940Z,10.32
2018-10-06T09:05:45.871Z,9.03
2018-10-06T09:08:14.936Z,10.63
2018-10-06T09:10:43.833Z,12.68
2018-10-06T09:13:12.699Z,9.70
2018-10-06T09:15:41.600Z,9.70
2018-10-06T09:18:10.550Z,7.95
2018-10-06T09:20:39.587Z,8.53
2018-10-06T09:23:08.534Z,12.53
2018-10-06T09:25:37.517Z,10.40
2018-10-06T09:28:07.109Z,8.30
2018-10-06T09:30:36.027Z,8.78
2018-10-06T09:33:04.942Z,9.23
2018-10-06T09:35:34.042Z,9.28
2018-10-06T09:38:02.987Z,8.45
2018-10-06T09:40:31.950Z,6.77
2018-10-06T09:43:00.838Z,11.05
2018-10-06T09:45:29.803Z,13.33
2018-10-06T09:47:58.784Z,10.18
2018-10-06T09:50:27.672Z,7.77
2018-10-06T09:52:56.650Z,8.27
2018-10-06T09:55:25.555Z,10.30
2018-10-06T09:57:54.435Z,9.30
2018-10-06T10:00:28.632Z,8.77
2018-10-06T10:03:02.810Z,7.70
2018-10-06T10:05:36.988Z,7.47
2018-10-06T10:08:05.939Z,7.13
2018-10-06T10:10:34.814Z,8.20
2018-10-06T10:13:03.706Z,5.47
2018-10-06T10:15:32.730Z,9.80
2018-10-06T10:18:01.624Z,7.80
2018-10-06T10:20:30.398Z,6.90
2018-10-06T10:22:59.806Z,8.37
2018-10-06T10:25:28.745Z,8.33
2018-10-06T10:27:57.650Z,7.23
2018-10-06T10:30:26.559Z,7.50
2018-10-06T10:32:55.606Z,7.83
2018-10-06T10:35:24.469Z,11.70
2018-10-06T10:37:53.522Z,7.87
2018-10-06T10:40:22.718Z,8.67
2018-10-06T10:42:51.834Z,7.60
2018-10-06T10:45:20.806Z,6.50
2018-10-06T10:47:49.686Z,6.47
2018-10-06T10:50:18.642Z,6.80
2018-10-06T10:52:47.517Z,5.90
2018-10-06T10:55:16.414Z,8.40
2018-10-06T10:57:45.305Z,8.23
2018-10-06T11:00:14.281Z,6.37
2018-10-06T11:02:43.095Z,7.63
2018-10-06T11:05:11.990Z,8.83
2018-10-06T11:07:40.892Z,8.53
2018-10-06T11:10:09.878Z,7.50
2018-10-06T11:12:38.830Z,6.80
2018-10-06T11:15:07.753Z,5.70
2018-10-06T11:17:36.642Z,6.80
2018-10-06T11:20:05.568Z,6.80
2018-10-06T11:22:34.586Z,5.20
2018-10-06T11:25:03.581Z,4.97
2018-10-06T11:27:32.731Z,6.40
2018-10-06T11:30:01.707Z,9.17
2018-10-06T11:32:30.603Z,5.30
2018-10-06T11:34:59.609Z,5.07
2018-10-06T11:37:28.605Z,4.30
2018-10-06T11:39:57.532Z,4.13
2018-10-06T11:42:26.455Z,7.67
2018-10-06T11:44:55.474Z,4.37
2018-10-06T11:47:24.435Z,3.80
2018-10-06T11:49:53.343Z,3.83
2018-10-06T11:52:22.305Z,3.83
2018-10-06T11:54:51.280Z,4.27
2018-10-06T11:57:20.232Z,3.60
2018-10-06T11:59:49.315Z,4.63
2018-10-06T12:02:18.214Z,3.30
2018-10-06T12:04:47.087Z,3.77
2018-10-06T12:07:15.962Z,3.03
2018-10-06T12:09:44.820Z,3.17
2018-10-06T12:12:13.703Z,3.23
2018-10-06T12:14:42.609Z,4.07
2018-10-06T12:17:11.597Z,3.03
2018-10-06T12:19:40.827Z,4.00
2018-10-06T12:22:09.739Z,3.30
2018-10-06T12:24:38.770Z,3.17
2018-10-06T12:27:08.737Z,3.73
2018-10-06T12:29:37.606Z,3.13
2018-10-06T12:32:06.578Z,3.00
2018-10-06T12:34:35.530Z,3.47
2018-10-06T12:37:04.381Z,3.17
2018-10-06T12:39:33.250Z,3.17
2018-10-06T12:42:06.180Z,4.03
2018-10-06T12:44:35.034Z,3.13
2018-10-06T12:47:03.946Z,3.03
2018-10-06T12:49:32.966Z,2.90
2018-10-06T12:52:01.988Z,3.07
2018-10-06T12:54:30.884Z,3.20
2018-10-06T12:56:59.807Z,3.53
2018-10-06T12:59:28.797Z,2.83
2018-10-06T13:01:57.798Z,4.60
2018-10-06T13:04:26.715Z,2.80
2018-10-06T13:06:55.627Z,3.30
2018-10-06T13:09:24.488Z,3.40
2018-10-06T13:11:53.435Z,3.23
2018-10-06T13:14:22.227Z,3.33
2018-10-06T13:16:51.227Z,2.87
2018-10-06T13:19:20.224Z,4.13
2018-10-06T13:21:49.135Z,2.70
2018-10-06T13:24:18.010Z,4.80
2018-10-06T13:26:47.167Z,5.33
2018-10-06T13:29:16.130Z,3.93
2018-10-06T13:31:45.093Z,3.73
2018-10-06T13:34:13.938Z,3.37
2018-10-06T13:36:42.804Z,3.53
2018-10-06T13:39:11.867Z,2.90
2018-10-06T13:41:40.786Z,3.23
2018-10-06T13:44:09.664Z,3.20
2018-10-06T13:46:38.579Z,5.30
2018-10-06T13:49:07.589Z,3.03
2018-10-06T13:51:36.578Z,3.50
2018-10-06T13:54:05.478Z,3.43
2018-10-06T13:56:34.402Z,3.40
2018-10-06T13:59:03.382Z,3.33
2018-10-06T14:01:32.275Z,3.57
2018-10-06T14:04:01.327Z,2.97
2018-10-06T14:06:30.194Z,3.37
2018-10-06T14:08:59.146Z,4.07
2018-10-06T14:11:28.132Z,3.37
2018-10-06T14:13:57.054Z,3.17
2018-10-06T14:16:26.034Z,3.30
2018-10-06T14:18:54.910Z,5.40
2018-10-06T14:21:23.938Z,2.77
2018-10-06T14:23:52.955Z,8.40
2018-10-06T14:26:21.875Z,2.83
2018-10-06T14:28:50.711Z,2.53
2018-10-06T14:31:19.765Z,3.87
2018-10-06T14:33:48.642Z,3.17
2018-10-06T14:36:17.671Z,2.37
2018-10-06T14:38:46.583Z,3.00
2018-10-06T14:41:15.502Z,4.87
2018-10-06T14:43:44.378Z,3.93
2018-10-06T14:46:13.306Z,2.90
2018-10-06T14:48:42.316Z,2.77
2018-10-06T14:51:11.190Z,3.33
2018-10-06T14:53:40.077Z,2.73
2018-10-06T14:56:09.039Z,5.10
2018-10-06T14:58:44.454Z,3.00
2018-10-06T15:01:13.330Z,3.20
2018-10-06T15:03:42.247Z,3.47
2018-10-06T15:06:11.214Z,3.60
2018-10-06T15:08:40.315Z,2.70
2018-10-06T15:11:09.210Z,5.20
2018-10-06T15:13:38.098Z,3.90
2018-10-06T15:16:07.073Z,3.40
2018-10-06T15:18:35.918Z,3.40
2018-10-06T15:21:04.807Z,7.20
2018-10-06T15:23:33.707Z,3.80
2018-10-06T15:26:02.582Z,2.57
2018-10-06T15:28:31.558Z,4.33
2018-10-06T15:31:00.455Z,3.17
2018-10-06T15:33:29.346Z,3.20
2018-10-06T15:35:58.578Z,3.07
2018-10-06T15:38:27.710Z,3.23
2018-10-06T15:40:56.559Z,2.90
2018-10-06T15:43:25.438Z,3.60
2018-10-06T15:45:54.386Z,3.30
2018-10-06T15:48:23.368Z,3.50
2018-10-06T15:50:52.235Z,3.50
2018-10-06T15:53:21.094Z,3.30
2018-10-06T15:55:50.067Z,4.80
2018-10-06T15:58:19.029Z,3.33
2018-10-06T16:00:47.988Z,3.73
2018-10-06T16:03:16.882Z,4.07
2018-10-06T16:05:45.782Z,4.80
2018-10-06T16:08:14.807Z,3.67
2018-10-06T16:10:43.690Z,3.67
2018-10-06T16:13:12.574Z,3.50
2018-10-06T16:15:41.608Z,3.50
2018-10-06T16:18:10.491Z,3.57
2018-10-06T16:20:39.415Z,6.90
2018-10-06T16:23:08.303Z,6.57
2018-10-06T16:25:37.174Z,3.20
2018-10-06T16:28:06.361Z,3.87
2018-10-06T16:30:35.351Z,3.60
2018-10-06T16:33:04.278Z,4.70
2018-10-06T16:35:33.173Z,5.63
2018-10-06T16:38:02.154Z,4.17
2018-10-06T16:40:31.042Z,3.77
2018-10-06T16:42:59.927Z,4.20
2018-10-06T16:45:28.922Z,3.73
2018-10-06T16:47:57.907Z,3.90
2018-10-06T16:50:26.819Z,4.40
2018-10-06T16:52:55.696Z,6.20
2018-10-06T16:55:24.572Z,4.33
2018-10-06T16:57:53.620Z,5.37
2018-10-06T17:00:22.599Z,3.47
2018-10-06T17:02:51.438Z,4.27
2018-10-06T17:05:20.371Z,4.83
2018-10-06T17:07:49.381Z,4.93
2018-10-06T17:10:18.186Z,4.20
2018-10-06T17:12:47.160Z,4.80
2018-10-06T17:15:16.002Z,5.40
2018-10-06T17:17:44.945Z,4.47
2018-10-06T17:20:13.830Z,5.80
2018-10-06T17:22:43.807Z,6.30
2018-10-06T17:25:12.828Z,12.03
2018-10-06T17:27:41.589Z,5.03
2018-10-06T17:30:10.598Z,5.10
2018-10-06T17:32:39.487Z,6.97
2018-10-06T17:35:08.450Z,5.50
2018-10-06T17:37:37.396Z,4.60
2018-10-06T17:40:06.438Z,4.90
2018-10-06T17:42:35.411Z,7.43
2018-10-06T17:45:04.447Z,5.53
2018-10-06T17:47:33.340Z,6.40
2018-10-06T17:50:02.393Z,5.63
2018-10-06T17:52:31.226Z,10.65
2018-10-06T17:55:00.259Z,6.03
2018-10-06T17:57:29.260Z,7.73
2018-10-06T17:59:58.130Z,6.40
2018-10-06T18:02:27.139Z,5.90
2018-10-06T18:04:56.106Z,6.37
2018-10-06T18:07:24.921Z,5.90
2018-10-06T18:09:53.966Z,5.30
2018-10-06T18:12:22.854Z,5.08
2018-10-06T18:14:51.754Z,4.80
2018-10-06T18:17:20.759Z,5.50
2018-10-06T18:19:49.815Z,5.58
2018-10-06T18:22:18.807Z,6.30
2018-10-06T18:24:48.034Z,6.47
2018-10-06T18:27:17.065Z,8.83
2018-10-06T18:29:46.467Z,5.45
2018-10-06T18:32:15.466Z,7.55
2018-10-06T18:34:44.338Z,5.47
2018-10-06T18:37:13.383Z,6.58
2018-10-06T18:39:42.185Z,6.87
2018-10-06T18:42:11.183Z,5.75
2018-10-06T18:44:40.047Z,5.50
2018-10-06T18:47:09.067Z,9.28
2018-10-06T18:49:37.951Z,14.55
2018-10-06T18:52:06.853Z,11.65
2018-10-06T18:54:35.813Z,7.10
2018-10-06T18:57:04.840Z,6.50
2018-10-06T18:59:33.686Z,9.28
2018-10-06T19:02:02.630Z,9.15
2018-10-06T19:04:31.662Z,6.90
2018-10-06T19:07:00.578Z,6.35
2018-10-06T19:09:29.482Z,7.35
2018-10-06T19:11:58.542Z,6.17
2018-10-06T19:14:27.513Z,6.60
2018-10-06T19:16:56.543Z,5.90
2018-10-06T19:19:25.642Z,6.12
2018-10-06T19:21:54.630Z,7.37
2018-10-06T19:24:24.207Z,5.83
2018-10-06T19:26:53.218Z,7.15
2018-10-06T19:29:22.116Z,6.50
2018-10-06T19:31:51.091Z,8.13
2018-10-06T19:34:20.084Z,6.05
2018-10-06T19:36:50.625Z,8.35
2018-10-06T19:39:19.560Z,6.30
2018-10-06T19:41:48.431Z,5.95
2018-10-06T19:44:17.295Z,6.22
2018-10-06T19:46:46.174Z,7.03
2018-10-06T19:49:15.047Z,6.92
2018-10-06T19:51:44.248Z,5.87
2018-10-06T19:54:13.160Z,8.33
2018-10-06T19:56:42.055Z,6.50
2018-10-06T19:59:10.981Z,7.78
2018-10-06T20:01:39.881Z,6.17
2018-10-06T20:04:08.774Z,6.95
2018-10-06T20:06:37.720Z,12.13
2018-10-06T20:09:08.611Z,6.83
2018-10-06T20:11:37.866Z,8.13
2018-10-06T20:14:06.812Z,6.22
2018-10-06T20:16:35.974Z,10.05
2018-10-06T20:19:05.016Z,6.12
2018-10-06T20:21:33.871Z,7.22
2018-10-06T20:24:02.997Z,6.05
2018-10-06T20:26:31.993Z,7.47
2018-10-06T20:29:00.975Z,7.47
2018-10-06T20:31:29.882Z,7.67
2018-10-06T20:33:58.760Z,6.25
2018-10-06T20:36:27.750Z,6.28
2018-10-06T20:38:56.755Z,6.25
2018-10-06T20:41:25.657Z,10.05
2018-10-06T20:43:54.906Z,8.48
2018-10-06T20:46:23.864Z,6.67
2018-10-06T20:48:52.809Z,8.08
2018-10-06T20:51:21.768Z,9.00
2018-10-06T20:53:50.650Z,8.30
2018-10-06T20:56:19.592Z,8.15
2018-10-06T20:58:48.488Z,8.00
2018-10-06T21:01:17.443Z,7.05
2018-10-06T21:03:46.310Z,7.87
2018-10-06T21:06:15.308Z,8.98
2018-10-06T21:08:44.254Z,6.45
2018-10-06T21:11:13.130Z,8.33
2018-10-06T21:13:42.055Z,6.47
2018-10-06T21:16:11.175Z,8.05
2018-10-06T21:18:40.046Z,6.03
2018-10-06T21:21:08.948Z,7.22
2018-10-06T21:23:37.819Z,6.33
2018-10-06T21:26:06.906Z,7.30
2018-10-06T21:28:42.394Z,7.05
2018-10-06T21:31:11.313Z,7.10
2018-10-06T21:33:40.158Z,8.70
2018-10-06T21:36:09.199Z,6.70
2018-10-06T21:38:38.107Z,6.22
2018-10-06T21:41:06.954Z,9.20
2018-10-06T21:43:35.843Z,8.65
2018-10-06T21:46:04.750Z,10.05
2018-10-06T21:48:33.735Z,6.92
2018-10-06T21:51:02.831Z,7.53
2018-10-06T21:53:31.748Z,7.75
2018-10-06T21:56:00.662Z,7.22
2018-10-06T21:58:29.710Z,6.55
2018-10-06T22:01:03.970Z,7.85
2018-10-06T22:03:32.914Z,5.67
2018-10-06T22:06:01.886Z,6.95
2018-10-06T22:08:30.771Z,6.62
2018-10-06T22:10:59.914Z,6.95
2018-10-06T22:13:29.094Z,8.13
2018-10-06T22:15:58.018Z,6.28
2018-10-06T22:18:27.107Z,8.35
2018-10-06T22:20:56.133Z,6.65
2018-10-06T22:23:25.331Z,6.78
2018-10-06T22:25:54.218Z,7.83
2018-10-06T22:28:23.114Z,8.35
2018-10-06T22:30:52.011Z,7.05
2018-10-06T22:33:20.882Z,6.37
2018-10-06T22:35:49.835Z,7.08
2018-10-06T22:38:18.855Z,6.42
2018-10-06T22:40:47.758Z,7.45
2018-10-06T22:43:16.639Z,7.90
2018-10-06T22:45:46.349Z,6.58
2018-10-06T22:48:15.391Z,6.50
2018-10-06T22:50:44.314Z,6.95
2018-10-06T22:53:13.282Z,7.80
2018-10-06T22:55:42.158Z,7.47
2018-10-06T22:58:11.088Z,6.60
2018-10-06T23:00:40.107Z,6.00
2018-10-06T23:03:09.145Z,7.10
2018-10-06T23:05:37.958Z,7.03
2018-10-06T23:08:06.886Z,7.65
2018-10-06T23:10:35.823Z,8.08
2018-10-06T23:13:04.731Z,7.40
2018-10-06T23:15:33.778Z,7.72
2018-10-06T23:18:02.778Z,7.75
2018-10-06T23:20:31.723Z,6.75
2018-10-06T23:23:00.625Z,7.03
2018-10-06T23:25:29.558Z,6.72
2018-10-06T23:27:58.484Z,7.62
2018-10-06T23:30:27.384Z,8.20
2018-10-06T23:32:56.396Z,8.33
2018-10-06T23:35:25.507Z,7.55
2018-10-06T23:37:54.624Z,6.83
2018-10-06T23:40:23.506Z,8.15
2018-10-06T23:42:52.465Z,7.33
2018-10-06T23:45:21.434Z,6.92
2018-10-06T23:47:50.610Z,7.00
2018-10-06T23:50:19.550Z,7.12
2018-10-06T23:52:48.446Z,6.78
2018-10-06T23:55:17.319Z,7.12
2018-10-06T23:57:46.322Z,7.35
